Cumberland, MD

4:10 AM EST on March 03, 2015 (GMT -0500)
Eastern W Va Regional-Shepherd | Change Station
CLOSE
Current Station
Airport
Location: Martinsburg,
Elevation: 531 ft
Nearby Weather Stations
Active Advisory: Winter Weather Advisory

Elev 531 ft 39.40 °N, 77.98 °W | Updated 17 minutes ago

Clear
Clear
26 °F
Feels Like 20 °F
N
5
Wind Variable Wind from NE

Today
High -- | Low -- °F
--% Chance of Precip.
Yesterday
High -- | Low -- °F
Precip. -- in
6:45 AM 6:09 PM
Waxing Gibbous, 95% visible
Pressure 30.38 in
Visibility 10.0 miles
Clouds Clear
Windchill 20 °F
Dew Point 15 °F
Humidity 63%
Rainfall 0.00 in
Snow Depth Not available.
UV 0 out of 12
Pollen .50 out of 12
Air Quality Not available.
Flu Activity Not available.
METAR KMRB 030853Z AUTO 05004KT 10SM CLR M03/M09 A3036 RMK AO2 SLP287 T10331094 58013 TSNO

More Conditions Fewer Conditions

Pressure 30.38 in
Visibility 10.0 miles
Clouds Clear
Windchill 20 °F
Dew Point 15 °F
Humidity 63%
Rainfall 0.00 in
Snow Depth Not available.
UV 0 out of 12
Pollen .50 out of 12
Air Quality Not available.
Flu Activity Not available.
METAR KMRB 030853Z AUTO 05004KT 10SM CLR M03/M09 A3036 RMK AO2 SLP287 T10331094 58013 TSNO

More Conditions Fewer Conditions

10-Day Weather Forecast

Almanac

Astronomy

Mar. 03, 2015 Rise Set
Actual Time
Civil Twilight
Nautical Twilight
Astronomical Twilight
Moon
Length of Visible Light
Length of Day
Tomorrow will be .
, % of the Moon is Illuminated

Today's Extremes

State Highs State Lows

Community

WunderPhotos

Upload Photos

1,802,075 photos uploaded!

WunderBlogs® & News

Nearby

Air Quality

  Air Quality AQ Index Pollutant
Not available.

Snow Depth

Station Depth Elevation

Earthquake Activity

City Distance Mag. Time & Date
Minimum magnitude displayed is 2.5.

Coastal Water Temperatures

Place Temperature

Nearby Weather Stations

Winter Weather Advisory
Statement as of 1:27 AM EST on March 03, 2015

... Winter Weather Advisory remains in effect from 7 am this
morning to 7 PM EST this evening...

* locations... eastern West Virginia... western Maryland and
western Virginia

* hazard types... a wintry mix of snow... sleet and freezing rain.

* Accumulations... snow and sleet accumulation of up to 1 inch...
along with up to one tenth inch ice.

* Timing... Tuesday morning until early Tuesday evening.

* Impacts... roads will be snow and ice covered. Traveling will
be dangerous.

* Winds... south 5 to 15 mph with gusts up to 25 mph.

* Temperatures... in the upper 20s... rising into the 30s.

Precautionary/preparedness actions...

A Winter Weather Advisory means that periods of snow... sleet... or
freezing rain will cause travel difficulties. Be prepared for
slippery roads and limited visibilities... and use caution while
driving.



Jackson